createdAt,value
2023-03-06T11:27:59.133Z,99539.34
2023-03-06T11:31:03.626Z,99539.34
2023-03-06T11:34:07.657Z,99534.41
2023-03-06T11:37:13.443Z,99528.50
2023-03-06T11:40:19.346Z,99522.75
2023-03-06T11:43:25.477Z,99508.97
2023-03-06T11:46:29.112Z,99505.34
2023-03-06T11:49:32.567Z,99499.19
2023-03-06T11:52:39.656Z,99487.06
2023-03-06T11:55:45.895Z,99491.09
2023-03-06T11:59:01.187Z,99485.97
2023-03-06T12:02:05.970Z,99475.16
2023-03-06T12:05:18.285Z,99473.59
2023-03-06T12:08:31.239Z,99464.09
2023-03-06T12:11:35.498Z,99454.97
2023-03-06T12:14:42.585Z,99449.78
2023-03-06T12:17:59.873Z,99445.50
2023-03-06T12:21:04.675Z,99434.94
2023-03-06T12:24:39.222Z,99427.28
2023-03-06T12:27:44.141Z,99422.81
2023-03-06T12:31:02.346Z,99425.75
2023-03-06T12:34:12.235Z,99416.44
2023-03-06T12:37:20.247Z,99423.25
2023-03-06T12:40:45.338Z,99421.91
2023-03-06T12:44:00.531Z,99408.72
2023-03-06T12:47:06.864Z,99405.69
2023-03-06T12:50:17.080Z,99403.62
2023-03-06T12:53:23.239Z,99403.56
2023-03-06T12:56:25.880Z,99406.09
2023-03-06T12:59:49.568Z,99412.59
2023-03-06T13:03:06.776Z,99413.22
2023-03-06T13:06:19.260Z,99407.66
2023-03-06T13:09:25.140Z,99403.22
2023-03-06T13:12:35.767Z,99397.88
2023-03-06T13:15:42.705Z,99393.16
2023-03-06T13:18:52.416Z,99396.75
2023-03-06T13:22:01.292Z,99399.44
2023-03-06T13:25:34.776Z,99390.56
2023-03-06T13:28:44.890Z,99394.31
2023-03-06T13:32:15.253Z,99387.91
2023-03-06T13:35:53.426Z,99388.81
2023-03-06T13:39:04.853Z,99376.84
2023-03-06T13:42:07.502Z,99377.19
2023-03-06T13:45:14.187Z,99369.16
2023-03-06T13:48:45.462Z,99366.00
2023-03-06T13:52:02.524Z,99361.13
2023-03-06T13:55:11.060Z,99352.59
2023-03-06T13:58:28.320Z,99347.84
2023-03-06T14:01:39.269Z,99351.19
2023-03-06T14:04:53.362Z,99342.59
2023-03-06T14:08:05.285Z,99348.50
2023-03-06T14:11:16.941Z,99336.72
2023-03-06T14:14:20.484Z,99328.25
2023-03-06T14:17:28.267Z,99334.06
2023-03-06T14:20:33.697Z,99332.16
2023-03-06T14:23:42.359Z,99330.06
2023-03-06T14:26:45.916Z,99320.16
2023-03-06T14:29:49.782Z,99317.88
2023-03-06T14:32:54.050Z,99318.69
2023-03-06T14:35:57.141Z,99313.25
2023-03-06T14:39:04.236Z,99305.28
2023-03-06T14:42:07.945Z,99309.66
2023-03-06T14:45:16.238Z,99306.38
2023-03-06T14:48:19.071Z,99306.38
2023-03-06T14:51:23.065Z,99300.91
2023-03-06T14:54:28.639Z,99303.91
2023-03-06T14:57:30.991Z,99302.16
2023-03-06T15:00:35.763Z,99296.91
2023-03-06T15:03:43.044Z,99299.28
2023-03-06T15:06:45.971Z,99298.25
2023-03-06T15:09:50.708Z,99292.13
2023-03-06T15:12:53.504Z,99288.31
2023-03-06T15:15:57.271Z,99295.78
2023-03-06T15:19:00.728Z,99284.06
2023-03-06T15:22:03.110Z,99291.72
2023-03-06T15:25:19.651Z,99289.88
2023-03-06T15:28:32.860Z,99282.34
2023-03-06T15:31:36.188Z,99269.59
2023-03-06T15:34:38.683Z,99284.03
2023-03-06T15:37:41.387Z,99282.97
2023-03-06T15:40:53.956Z,99272.94
2023-03-06T15:43:57.385Z,99280.16
2023-03-06T15:47:08.468Z,99281.97
2023-03-06T15:50:16.215Z,99282.50
2023-03-06T15:53:20.183Z,99278.25
2023-03-06T15:56:28.034Z,99285.94
2023-03-06T15:59:33.015Z,99276.44
2023-03-06T16:02:35.684Z,99281.00
2023-03-06T16:05:38.626Z,99277.94
2023-03-06T16:08:41.066Z,99287.22
2023-03-06T16:11:45.175Z,99290.22
2023-03-06T16:14:47.987Z,99290.72
2023-03-06T16:17:50.632Z,99284.31
2023-03-06T16:20:53.085Z,99276.06
2023-03-06T16:23:55.785Z,99282.41
2023-03-06T16:27:00.543Z,99294.25
2023-03-06T16:30:03.523Z,99297.41
2023-03-06T16:33:06.110Z,99295.28
2023-03-06T16:36:12.564Z,99297.59
2023-03-06T16:39:15.131Z,99305.03
2023-03-06T16:42:19.236Z,99305.41
2023-03-06T16:45:21.838Z,99302.81
2023-03-06T16:48:24.463Z,99307.41
2023-03-06T16:51:26.907Z,99309.50
2023-03-06T16:54:29.566Z,99308.09
2023-03-06T16:57:35.698Z,99305.78
2023-03-06T17:00:38.318Z,99306.78
